createdAt,value
2023-02-07T00:01:07.358Z,7.47
2023-02-07T00:03:33.795Z,7.25
2023-02-07T00:06:00.195Z,6.78
2023-02-07T00:08:26.566Z,8.18
2023-02-07T00:10:52.963Z,7.72
2023-02-07T00:13:19.335Z,8.55
2023-02-07T00:15:45.741Z,7.43
2023-02-07T00:18:12.105Z,8.77
2023-02-07T00:20:38.546Z,10.23
2023-02-07T00:23:05.012Z,9.20
2023-02-07T00:25:31.425Z,12.57
2023-02-07T00:27:58.074Z,14.07
2023-02-07T00:30:24.539Z,13.38
2023-02-07T00:32:50.938Z,15.07
2023-02-07T00:35:17.358Z,18.42
2023-02-07T00:37:43.765Z,17.15
2023-02-07T00:40:10.221Z,15.25
2023-02-07T00:42:36.605Z,15.48
2023-02-07T00:45:03.001Z,16.17
2023-02-07T00:47:29.403Z,15.52
2023-02-07T00:49:55.823Z,14.13
2023-02-07T00:52:22.262Z,14.35
2023-02-07T00:54:48.894Z,14.32
2023-02-07T00:57:15.346Z,14.35
2023-02-07T00:59:41.757Z,15.75
2023-02-07T01:02:08.193Z,14.88
2023-02-07T01:04:34.677Z,13.23
2023-02-07T01:07:01.394Z,18.67
2023-02-07T01:09:27.933Z,14.77
2023-02-07T01:11:54.397Z,14.85
2023-02-07T01:14:20.877Z,14.63
2023-02-07T01:16:47.309Z,10.27
2023-02-07T01:19:14.997Z,14.27
2023-02-07T01:21:41.437Z,11.93
2023-02-07T01:24:07.840Z,14.52
2023-02-07T01:26:34.293Z,11.57
2023-02-07T01:29:00.702Z,11.60
2023-02-07T01:31:27.286Z,11.18
2023-02-07T01:33:53.920Z,12.88
2023-02-07T01:36:20.350Z,10.40
2023-02-07T01:38:46.748Z,12.52
2023-02-07T01:41:13.184Z,12.50
2023-02-07T01:43:39.598Z,12.32
2023-02-07T01:46:06.052Z,11.02
2023-02-07T01:48:32.520Z,11.95
2023-02-07T01:50:58.914Z,11.43
2023-02-07T01:53:25.357Z,11.85
2023-02-07T01:55:51.828Z,10.95
2023-02-07T01:58:18.332Z,11.90
2023-02-07T02:00:44.764Z,15.98
2023-02-07T02:03:11.197Z,13.32
2023-02-07T02:05:37.888Z,11.60
2023-02-07T02:08:04.435Z,14.40
2023-02-07T02:10:30.891Z,11.25
2023-02-07T02:12:57.279Z,14.10
2023-02-07T02:15:23.714Z,14.07
2023-02-07T02:17:50.095Z,13.30
2023-02-07T02:20:16.482Z,12.00
2023-02-07T02:22:42.932Z,11.35
2023-02-07T02:25:09.483Z,11.40
2023-02-07T02:27:35.946Z,12.43
2023-02-07T02:30:02.486Z,13.73
2023-02-07T02:32:28.949Z,9.15
2023-02-07T02:34:55.355Z,10.15
2023-02-07T02:37:21.796Z,11.50
2023-02-07T02:39:48.182Z,12.13
2023-02-07T02:42:14.619Z,10.82
2023-02-07T02:44:41.068Z,13.77
2023-02-07T02:47:07.513Z,11.63
2023-02-07T02:49:33.958Z,11.07
2023-02-07T02:52:00.393Z,10.60
2023-02-07T02:54:26.822Z,13.52
2023-02-07T02:56:53.256Z,11.65
2023-02-07T02:59:19.694Z,9.98
2023-02-07T03:01:46.129Z,9.55
2023-02-07T03:04:12.530Z,7.43
2023-02-07T03:06:38.973Z,10.18
2023-02-07T03:09:05.366Z,10.27
2023-02-07T03:11:31.741Z,8.52
2023-02-07T03:13:58.131Z,8.48
2023-02-07T03:16:24.591Z,9.85
2023-02-07T03:18:51.042Z,7.70
2023-02-07T03:21:17.463Z,11.18
2023-02-07T03:23:44.108Z,10.32
2023-02-07T03:26:10.490Z,9.45
2023-02-07T03:28:36.928Z,9.73
2023-02-07T03:31:03.420Z,12.90
2023-02-07T03:33:29.819Z,8.65
2023-02-07T03:35:56.223Z,10.35
2023-02-07T03:38:22.603Z,11.10
2023-02-07T03:40:49.047Z,7.80
2023-02-07T03:43:15.524Z,9.98
2023-02-07T03:45:41.926Z,11.13
2023-02-07T03:48:08.353Z,9.98
2023-02-07T03:50:34.746Z,9.55
2023-02-07T03:53:01.406Z,11.07
2023-02-07T03:55:28.042Z,8.75
2023-02-07T03:57:54.491Z,10.43
2023-02-07T04:00:20.874Z,10.20
2023-02-07T04:02:47.328Z,10.73
2023-02-07T04:05:13.757Z,11.27
2023-02-07T04:07:40.147Z,10.75
2023-02-07T04:10:06.601Z,11.43
2023-02-07T04:12:33.054Z,12.57
2023-02-07T04:14:59.458Z,8.50
2023-02-07T04:17:25.903Z,10.65
2023-02-07T04:19:52.370Z,10.27
2023-02-07T04:22:18.988Z,8.27
2023-02-07T04:24:45.412Z,10.35
2023-02-07T04:27:11.806Z,10.57
2023-02-07T04:29:38.181Z,10.88
2023-02-07T04:32:04.641Z,9.38
2023-02-07T04:34:31.051Z,10.10
2023-02-07T04:36:57.809Z,10.07
2023-02-07T04:39:24.198Z,9.20
2023-02-07T04:41:50.560Z,9.98
2023-02-07T04:44:16.993Z,11.77
2023-02-07T04:46:43.410Z,9.23
2023-02-07T04:49:09.841Z,12.15
2023-02-07T04:51:36.238Z,11.93
2023-02-07T04:54:02.679Z,13.43
2023-02-07T04:56:29.137Z,11.45
2023-02-07T04:58:55.529Z,10.98
2023-02-07T05:01:21.967Z,11.18
2023-02-07T05:03:48.463Z,13.30
2023-02-07T05:06:14.862Z,15.73
2023-02-07T05:08:41.236Z,12.38
2023-02-07T05:11:07.680Z,13.35
2023-02-07T05:13:34.071Z,11.93
2023-02-07T05:16:00.523Z,12.57
2023-02-07T05:18:26.983Z,10.80
2023-02-07T05:20:53.381Z,11.50
2023-02-07T05:23:19.809Z,10.63
2023-02-07T05:25:46.243Z,9.10
2023-02-07T05:28:12.666Z,10.38
2023-02-07T05:30:39.222Z,10.20
2023-02-07T05:33:05.660Z,8.60
2023-02-07T05:35:32.079Z,9.63
2023-02-07T05:37:58.573Z,10.10
2023-02-07T05:40:26.008Z,10.48
2023-02-07T05:42:52.450Z,8.98
2023-02-07T05:45:19.014Z,9.98
2023-02-07T05:47:45.467Z,9.45
2023-02-07T05:50:11.913Z,9.63
2023-02-07T05:52:38.305Z,9.57
2023-02-07T05:55:04.742Z,8.55
2023-02-07T05:57:31.182Z,10.25
2023-02-07T05:59:57.856Z,9.13
2023-02-07T06:02:24.422Z,8.55
2023-02-07T06:04:50.920Z,10.93
2023-02-07T06:07:17.380Z,12.02
2023-02-07T06:09:43.810Z,13.20
2023-02-07T06:12:10.303Z,12.48
2023-02-07T06:14:36.694Z,11.60
2023-02-07T06:17:03.133Z,12.48
2023-02-07T06:19:29.537Z,10.80
2023-02-07T06:21:55.964Z,10.38
2023-02-07T06:24:22.348Z,9.93
2023-02-07T06:26:48.758Z,9.73
2023-02-07T06:29:15.217Z,13.43
2023-02-07T06:31:41.663Z,12.05
2023-02-07T06:34:08.056Z,11.85
2023-02-07T06:36:34.438Z,11.05
2023-02-07T06:39:00.812Z,10.23
2023-02-07T06:41:27.255Z,10.35
2023-02-07T06:43:53.885Z,12.98
2023-02-07T06:46:20.406Z,11.38
2023-02-07T06:48:46.860Z,12.20
2023-02-07T06:51:13.314Z,10.38
2023-02-07T06:53:39.753Z,9.90
2023-02-07T06:56:06.157Z,12.27
2023-02-07T06:58:32.590Z,10.48
2023-02-07T07:00:59.027Z,10.68
2023-02-07T07:03:25.464Z,10.77
2023-02-07T07:05:51.893Z,11.80
2023-02-07T07:08:18.357Z,11.02
2023-02-07T07:10:44.802Z,10.32
2023-02-07T07:13:11.241Z,9.18
2023-02-07T07:15:37.903Z,8.88
2023-02-07T07:18:04.499Z,9.32
2023-02-07T07:20:30.872Z,10.15
2023-02-07T07:22:57.275Z,11.35
2023-02-07T07:25:23.716Z,9.68
2023-02-07T07:27:50.140Z,11.60
2023-02-07T07:30:16.612Z,10.93
2023-02-07T07:32:43.017Z,11.25
2023-02-07T07:35:09.388Z,11.55
2023-02-07T07:37:35.752Z,11.93
2023-02-07T07:40:02.352Z,12.13
2023-02-07T07:42:28.977Z,13.65
2023-02-07T07:44:55.430Z,12.23
2023-02-07T07:47:21.922Z,12.90
2023-02-07T07:49:49.455Z,12.02
2023-02-07T07:52:16.371Z,12.25
2023-02-07T07:54:42.754Z,10.60
2023-02-07T07:57:09.237Z,11.45
2023-02-07T07:59:35.639Z,11.00
2023-02-07T08:02:02.506Z,8.82
2023-02-07T08:04:28.967Z,9.93
2023-02-07T08:06:55.405Z,11.00
2023-02-07T08:09:21.819Z,8.60
2023-02-07T08:11:48.595Z,10.07
2023-02-07T08:14:15.011Z,11.05
2023-02-07T08:16:41.467Z,13.25
2023-02-07T08:19:07.939Z,9.30
2023-02-07T08:21:34.331Z,9.13
2023-02-07T08:24:00.745Z,10.20
2023-02-07T08:26:27.197Z,10.52
2023-02-07T08:28:53.636Z,12.93
2023-02-07T08:31:20.150Z,15.30
2023-02-07T08:33:46.676Z,13.82
2023-02-07T08:36:13.139Z,11.98
2023-02-07T08:38:39.591Z,14.35
2023-02-07T08:41:06.025Z,14.18
2023-02-07T08:43:32.440Z,14.75
2023-02-07T08:45:59.155Z,14.25
2023-02-07T08:48:25.697Z,11.73
2023-02-07T08:50:52.159Z,12.95
2023-02-07T08:53:18.585Z,13.52
2023-02-07T08:55:45.022Z,11.82
2023-02-07T08:58:11.418Z,12.88
2023-02-07T09:00:38.326Z,9.82
2023-02-07T09:03:05.076Z,13.35
2023-02-07T09:05:31.484Z,15.00
2023-02-07T09:07:58.080Z,14.20
2023-02-07T09:10:24.573Z,14.88
2023-02-07T09:12:51.028Z,12.80
2023-02-07T09:15:17.625Z,14.77
2023-02-07T09:17:44.063Z,12.77
2023-02-07T09:20:10.452Z,12.90
2023-02-07T09:22:36.882Z,15.55
2023-02-07T09:25:03.314Z,10.52
2023-02-07T09:27:29.710Z,11.05
2023-02-07T09:29:56.165Z,10.10
2023-02-07T09:32:22.621Z,12.13
2023-02-07T09:34:49.600Z,9.35
2023-02-07T09:37:15.992Z,9.75
2023-02-07T09:39:42.374Z,10.32
2023-02-07T09:42:08.763Z,9.52
2023-02-07T09:44:35.301Z,10.63
2023-02-07T09:47:01.722Z,10.48
2023-02-07T09:49:28.109Z,11.02
2023-02-07T09:51:54.522Z,10.85
2023-02-07T09:54:20.926Z,10.60
2023-02-07T09:56:47.810Z,11.32
2023-02-07T09:59:14.244Z,9.15
2023-02-07T10:01:40.708Z,8.68
2023-02-07T10:04:07.177Z,10.23
2023-02-07T10:06:33.550Z,8.98
2023-02-07T10:08:59.930Z,8.80
2023-02-07T10:11:26.384Z,9.70
2023-02-07T10:13:52.845Z,8.50
2023-02-07T10:16:19.253Z,9.82
2023-02-07T10:18:45.637Z,8.95
2023-02-07T10:21:12.014Z,8.50
2023-02-07T10:23:38.406Z,7.63
2023-02-07T10:26:04.843Z,9.82
2023-02-07T10:28:31.241Z,10.13
2023-02-07T10:31:00.157Z,9.88
2023-02-07T10:33:26.674Z,9.23
2023-02-07T10:35:53.123Z,7.25
2023-02-07T10:38:19.566Z,8.43
2023-02-07T10:40:46.039Z,9.40
2023-02-07T10:43:12.487Z,7.45
2023-02-07T10:45:38.922Z,8.73
2023-02-07T10:48:05.389Z,6.90
2023-02-07T10:50:31.800Z,9.35
2023-02-07T10:52:58.303Z,8.90
2023-02-07T10:55:24.752Z,8.80
2023-02-07T10:57:59.775Z,9.35
2023-02-07T11:00:28.020Z,7.63
2023-02-07T11:02:54.518Z,8.05
2023-02-07T11:05:21.014Z,7.47
2023-02-07T11:07:48.163Z,7.20
2023-02-07T11:10:14.739Z,7.53
2023-02-07T11:12:41.189Z,7.90
2023-02-07T11:15:07.574Z,6.30
2023-02-07T11:17:34.072Z,6.35
2023-02-07T11:20:00.546Z,6.30
2023-02-07T11:22:26.986Z,6.35
2023-02-07T11:24:53.442Z,6.25
2023-02-07T11:27:19.917Z,5.97
2023-02-07T11:29:46.357Z,5.88
2023-02-07T11:32:12.811Z,5.38
2023-02-07T11:34:39.238Z,4.72
2023-02-07T11:37:05.637Z,5.40
2023-02-07T11:39:32.113Z,4.50
2023-02-07T11:41:58.498Z,4.93
2023-02-07T11:44:24.956Z,5.13
2023-02-07T11:46:51.489Z,5.57
2023-02-07T11:49:17.957Z,5.25
2023-02-07T11:51:44.405Z,5.07
2023-02-07T11:54:10.875Z,5.60
2023-02-07T11:56:37.329Z,7.43
2023-02-07T11:59:03.743Z,5.40
2023-02-07T12:01:30.155Z,6.97
2023-02-07T12:03:56.598Z,4.38
2023-02-07T12:06:23.080Z,5.32
2023-02-07T12:08:49.501Z,4.55
2023-02-07T12:11:15.942Z,6.13
2023-02-07T12:13:42.333Z,4.82
2023-02-07T12:16:08.867Z,5.47
2023-02-07T12:18:35.304Z,4.53
2023-02-07T12:21:01.763Z,5.72
2023-02-07T12:23:41.853Z,4.68
2023-02-07T12:26:08.946Z,5.32
2023-02-07T12:28:35.372Z,4.85
2023-02-07T12:31:01.817Z,4.70
2023-02-07T12:33:28.231Z,3.85
2023-02-07T12:35:57.577Z,4.40
2023-02-07T12:38:24.502Z,6.03
2023-02-07T12:40:50.932Z,4.57
2023-02-07T12:43:17.752Z,4.63
2023-02-07T12:45:44.226Z,4.60
2023-02-07T12:48:10.665Z,5.05
2023-02-07T12:50:37.108Z,5.28
2023-02-07T12:53:03.527Z,4.50
2023-02-07T12:55:29.933Z,5.95
2023-02-07T12:57:56.352Z,4.90
2023-02-07T13:00:22.792Z,5.38
2023-02-07T13:02:49.183Z,4.32
2023-02-07T13:05:15.610Z,4.53
2023-02-07T13:07:42.149Z,3.70
2023-02-07T13:10:08.554Z,5.07
2023-02-07T13:12:35.004Z,5.53
2023-02-07T13:15:01.516Z,5.07
2023-02-07T13:17:28.084Z,5.60
2023-02-07T13:19:54.525Z,3.60
2023-02-07T13:22:21.006Z,6.80
2023-02-07T13:24:47.650Z,5.78
2023-02-07T13:27:15.351Z,4.75
2023-02-07T13:29:42.857Z,5.60
2023-02-07T13:32:09.314Z,3.70
2023-02-07T13:34:35.735Z,3.80
2023-02-07T13:37:11.377Z,3.33
2023-02-07T13:39:42.711Z,3.65
2023-02-07T13:42:09.142Z,5.22
2023-02-07T13:44:35.585Z,4.53
2023-02-07T13:47:02.222Z,3.95
2023-02-07T13:49:28.802Z,5.03
2023-02-07T13:51:55.224Z,3.88
2023-02-07T13:54:21.679Z,5.25
2023-02-07T13:56:48.108Z,4.93
2023-02-07T13:59:14.495Z,3.70
2023-02-07T14:01:41.018Z,3.80
2023-02-07T14:04:07.406Z,3.42
2023-02-07T14:06:33.858Z,2.85
2023-02-07T14:09:00.320Z,3.72
2023-02-07T14:11:26.791Z,4.00
2023-02-07T14:13:53.203Z,3.20
2023-02-07T14:16:19.647Z,3.38
2023-02-07T14:18:46.102Z,3.25
2023-02-07T14:21:12.595Z,4.32
2023-02-07T14:23:39.046Z,4.25
2023-02-07T14:26:05.506Z,3.50
2023-02-07T14:28:31.999Z,3.85
2023-02-07T14:30:58.457Z,3.70
2023-02-07T14:33:24.959Z,3.65
2023-02-07T14:35:51.358Z,3.63
2023-02-07T14:38:17.870Z,3.70
2023-02-07T14:40:44.276Z,3.75
2023-02-07T14:43:10.689Z,3.20
2023-02-07T14:45:37.206Z,3.45
2023-02-07T14:48:03.716Z,3.47
2023-02-07T14:50:30.145Z,2.95
2023-02-07T14:52:56.566Z,3.92
2023-02-07T14:55:23.008Z,3.95
2023-02-07T14:57:49.441Z,3.03
2023-02-07T15:00:15.886Z,3.60
2023-02-07T15:02:42.396Z,4.60
2023-02-07T15:05:08.807Z,3.63
2023-02-07T15:07:35.205Z,3.42
2023-02-07T15:10:01.580Z,5.05
2023-02-07T15:12:28.163Z,4.40
2023-02-07T15:14:54.621Z,4.65
2023-02-07T15:17:21.059Z,3.95
2023-02-07T15:19:47.697Z,4.05
2023-02-07T15:22:25.098Z,4.18
2023-02-07T15:24:52.293Z,4.05
2023-02-07T15:27:18.762Z,3.85
2023-02-07T15:29:45.137Z,4.20
2023-02-07T15:32:11.657Z,3.45
2023-02-07T15:34:38.138Z,3.70
2023-02-07T15:37:04.578Z,3.90
2023-02-07T15:39:31.002Z,3.50
2023-02-07T15:41:57.545Z,4.63
2023-02-07T15:44:23.990Z,4.80
2023-02-07T15:46:50.492Z,4.70
2023-02-07T15:49:16.968Z,4.18
2023-02-07T15:51:43.417Z,5.18
2023-02-07T15:54:09.809Z,3.83
2023-02-07T15:56:36.275Z,4.55
2023-02-07T15:59:02.684Z,4.13
2023-02-07T16:01:29.115Z,4.03
2023-02-07T16:03:55.572Z,5.18
2023-02-07T16:06:22.045Z,4.93
2023-02-07T16:08:48.681Z,5.40
2023-02-07T16:11:15.070Z,4.28
2023-02-07T16:13:41.482Z,4.30
2023-02-07T16:16:07.946Z,5.00
2023-02-07T16:18:34.371Z,4.93
2023-02-07T16:21:00.759Z,4.85
2023-02-07T16:23:27.246Z,4.32
2023-02-07T16:25:53.748Z,4.47
2023-02-07T16:28:20.163Z,5.10
2023-02-07T16:30:46.570Z,4.55
2023-02-07T16:33:13.026Z,3.50
2023-02-07T16:35:39.418Z,4.95
2023-02-07T16:38:05.848Z,4.50
2023-02-07T16:40:32.271Z,4.13
2023-02-07T16:42:58.724Z,4.65
2023-02-07T16:45:25.119Z,3.90
2023-02-07T16:47:51.588Z,4.93
2023-02-07T16:50:17.970Z,4.35
2023-02-07T16:52:44.367Z,4.40
2023-02-07T16:55:10.782Z,6.40
2023-02-07T16:57:37.181Z,4.93
2023-02-07T17:00:03.567Z,5.72
2023-02-07T17:02:30.040Z,5.50
2023-02-07T17:04:56.514Z,4.47
2023-02-07T17:07:22.903Z,4.53
2023-02-07T17:09:49.286Z,4.68
2023-02-07T17:12:15.698Z,5.05
2023-02-07T17:14:42.126Z,3.97
2023-02-07T17:17:08.595Z,4.97
2023-02-07T17:19:35.057Z,3.70
2023-02-07T17:22:01.563Z,3.95
2023-02-07T17:24:27.976Z,4.82
2023-02-07T17:26:54.413Z,4.65
2023-02-07T17:29:20.822Z,3.92
2023-02-07T17:31:47.326Z,4.50
2023-02-07T17:34:13.875Z,5.05
2023-02-07T17:36:40.326Z,4.65
2023-02-07T17:39:06.736Z,5.53
2023-02-07T17:41:33.110Z,3.72
2023-02-07T17:43:59.502Z,4.22
2023-02-07T17:46:25.972Z,4.47
2023-02-07T17:48:52.388Z,4.53
2023-02-07T17:51:18.783Z,4.55
2023-02-07T17:53:45.251Z,5.25
2023-02-07T17:56:11.693Z,3.88
2023-02-07T17:58:38.098Z,5.47
2023-02-07T18:01:04.481Z,4.95
2023-02-07T18:03:30.892Z,5.18
2023-02-07T18:05:57.667Z,4.95
2023-02-07T18:08:24.062Z,5.20
2023-02-07T18:10:50.511Z,5.68
2023-02-07T18:13:16.902Z,5.10
2023-02-07T18:15:43.345Z,4.43
2023-02-07T18:18:09.790Z,4.82
2023-02-07T18:20:36.224Z,4.80
2023-02-07T18:23:02.694Z,4.25
2023-02-07T18:25:29.092Z,5.63
2023-02-07T18:27:55.568Z,6.18
2023-02-07T18:30:22.024Z,6.22
2023-02-07T18:32:48.523Z,5.05
2023-02-07T18:35:14.936Z,4.70
2023-02-07T18:37:41.365Z,5.53
2023-02-07T18:40:07.757Z,5.78
2023-02-07T18:42:34.136Z,5.68
2023-02-07T18:45:00.546Z,5.45
2023-02-07T18:47:26.944Z,6.32
2023-02-07T18:49:53.399Z,5.90
2023-02-07T18:52:19.839Z,5.53
2023-02-07T18:54:46.329Z,6.85
2023-02-07T18:57:12.730Z,7.35
2023-02-07T18:59:39.196Z,5.78
2023-02-07T19:02:05.590Z,6.03
2023-02-07T19:04:32.048Z,6.05
2023-02-07T19:06:58.666Z,5.00
2023-02-07T19:09:25.137Z,5.53
2023-02-07T19:11:51.556Z,5.63
2023-02-07T19:14:17.974Z,4.25
2023-02-07T19:16:44.400Z,6.20
2023-02-07T19:19:10.789Z,5.80
2023-02-07T19:21:37.211Z,5.55
2023-02-07T19:24:03.615Z,6.28
2023-02-07T19:26:30.026Z,6.25
2023-02-07T19:28:56.447Z,6.20
2023-02-07T19:31:23.112Z,6.93
2023-02-07T19:33:49.582Z,6.80
2023-02-07T19:36:16.033Z,6.35
2023-02-07T19:38:42.432Z,6.97
2023-02-07T19:41:08.844Z,6.78
2023-02-07T19:43:35.263Z,6.28
2023-02-07T19:46:01.788Z,6.57
2023-02-07T19:48:28.247Z,6.05
2023-02-07T19:50:54.740Z,7.95
2023-02-07T19:53:21.138Z,7.53
2023-02-07T19:55:47.701Z,5.75
2023-02-07T19:58:14.141Z,6.90
2023-02-07T20:00:40.861Z,6.38
2023-02-07T20:03:07.434Z,6.53
2023-02-07T20:05:33.906Z,6.15
2023-02-07T20:08:00.298Z,6.97
2023-02-07T20:10:26.762Z,7.40
2023-02-07T20:12:53.242Z,8.80
2023-02-07T20:15:19.633Z,8.98
2023-02-07T20:17:46.084Z,8.00
2023-02-07T20:20:12.474Z,9.23
2023-02-07T20:22:38.939Z,9.90
2023-02-07T20:25:05.343Z,9.65
2023-02-07T20:27:31.794Z,12.32
2023-02-07T20:29:58.531Z,8.98
2023-02-07T20:32:24.989Z,8.88
2023-02-07T20:34:51.443Z,7.90
2023-02-07T20:37:18.930Z,7.82
2023-02-07T20:39:45.402Z,6.45
2023-02-07T20:42:11.813Z,6.47
2023-02-07T20:44:38.264Z,7.55
2023-02-07T20:47:04.696Z,7.35
2023-02-07T20:49:31.255Z,6.47
2023-02-07T20:51:57.822Z,6.72
2023-02-07T20:54:24.205Z,6.95
2023-02-07T20:56:50.606Z,7.85
2023-02-07T20:59:17.050Z,6.97
2023-02-07T21:01:43.514Z,8.77
2023-02-07T21:04:09.955Z,7.55
2023-02-07T21:06:36.393Z,6.45
2023-02-07T21:09:03.031Z,6.43
2023-02-07T21:11:29.662Z,5.47
2023-02-07T21:13:56.098Z,7.28
2023-02-07T21:16:22.567Z,6.70
2023-02-07T21:18:49.051Z,6.55
2023-02-07T21:21:15.634Z,6.47
2023-02-07T21:23:42.130Z,6.38
2023-02-07T21:26:08.541Z,6.95
2023-02-07T21:28:34.992Z,7.05
2023-02-07T21:31:01.564Z,8.25
2023-02-07T21:33:28.008Z,6.32
2023-02-07T21:35:54.380Z,5.97
2023-02-07T21:38:20.814Z,6.60
2023-02-07T21:40:47.256Z,7.63
2023-02-07T21:43:13.688Z,6.05
2023-02-07T21:45:40.213Z,5.13
2023-02-07T21:48:06.712Z,6.30
2023-02-07T21:50:33.161Z,5.85
2023-02-07T21:52:59.594Z,5.72
2023-02-07T21:55:26.015Z,7.30
2023-02-07T21:57:52.452Z,6.25
2023-02-07T22:00:18.956Z,7.70
2023-02-07T22:02:45.433Z,7.65
2023-02-07T22:05:11.857Z,7.63
2023-02-07T22:07:38.284Z,6.07
2023-02-07T22:10:04.775Z,8.55
2023-02-07T22:12:31.177Z,7.38
2023-02-07T22:14:57.785Z,8.30
2023-02-07T22:17:24.189Z,9.70
2023-02-07T22:19:50.580Z,8.85
2023-02-07T22:22:17.016Z,8.65
2023-02-07T22:24:43.442Z,11.32
2023-02-07T22:27:09.960Z,9.10
2023-02-07T22:29:36.393Z,10.65
2023-02-07T22:32:02.859Z,8.43
2023-02-07T22:34:29.257Z,9.13
2023-02-07T22:36:55.655Z,7.00
2023-02-07T22:39:22.050Z,9.70
2023-02-07T22:41:48.807Z,9.05
2023-02-07T22:44:15.284Z,7.82
2023-02-07T22:46:41.729Z,9.18
2023-02-07T22:49:08.174Z,9.63
2023-02-07T22:51:34.634Z,9.88
2023-02-07T22:54:01.180Z,8.50
2023-02-07T22:56:27.864Z,8.50
2023-02-07T22:58:54.450Z,9.15
2023-02-07T23:01:20.852Z,10.88
2023-02-07T23:03:47.306Z,9.18
2023-02-07T23:06:14.013Z,9.55
2023-02-07T23:08:40.606Z,11.55
2023-02-07T23:11:07.020Z,12.23
2023-02-07T23:13:33.435Z,11.82
2023-02-07T23:15:59.889Z,10.88
2023-02-07T23:18:26.352Z,9.48
2023-02-07T23:20:52.800Z,9.57
2023-02-07T23:23:19.234Z,9.63
2023-02-07T23:25:45.635Z,9.80
2023-02-07T23:28:12.049Z,9.60
2023-02-07T23:30:38.723Z,8.00
2023-02-07T23:33:05.423Z,8.20
2023-02-07T23:35:31.853Z,9.15
2023-02-07T23:37:58.489Z,8.80
2023-02-07T23:40:25.025Z,9.57
2023-02-07T23:42:51.502Z,9.90
2023-02-07T23:45:17.899Z,8.38
2023-02-07T23:47:44.283Z,9.57
2023-02-07T23:50:10.665Z,8.88
2023-02-07T23:52:37.118Z,10.80
2023-02-07T23:55:03.560Z,9.77
2023-02-07T23:57:30.015Z,12.93
2023-02-07T23:59:56.440Z,13.95
